createdAt,value
2022-09-26T00:00:40.334Z,19.82
2022-09-26T00:03:07.461Z,19.86
2022-09-26T00:05:34.560Z,19.85
2022-09-26T00:08:02.034Z,19.84
2022-09-26T00:10:29.152Z,19.83
2022-09-26T00:12:56.601Z,19.84
2022-09-26T00:15:24.144Z,19.84
2022-09-26T00:17:52.625Z,19.83
2022-09-26T00:20:19.762Z,19.82
2022-09-26T00:22:46.926Z,19.80
2022-09-26T00:25:14.185Z,19.77
2022-09-26T00:27:41.261Z,19.94
2022-09-26T00:30:10.842Z,20.06
2022-09-26T00:32:37.881Z,20.01
2022-09-26T00:35:07.904Z,20.01
2022-09-26T00:37:34.982Z,20.07
2022-09-26T00:40:02.303Z,20.35
2022-09-26T00:42:29.406Z,20.55
2022-09-26T00:44:56.826Z,20.71
2022-09-26T00:47:42.522Z,20.74
2022-09-26T00:50:22.307Z,20.89
2022-09-26T00:52:53.321Z,20.95
2022-09-26T00:55:26.344Z,21.00
2022-09-26T00:57:59.501Z,21.04
2022-09-26T01:00:27.003Z,21.09
2022-09-26T01:02:54.764Z,21.12
2022-09-26T01:05:24.626Z,21.15
2022-09-26T01:07:55.582Z,21.20
2022-09-26T01:10:23.244Z,21.16
2022-09-26T01:12:50.662Z,21.08
2022-09-26T01:15:18.142Z,21.07
2022-09-26T01:17:46.702Z,21.05
2022-09-26T01:20:26.922Z,21.00
2022-09-26T01:23:38.203Z,21.00
2022-09-26T01:27:00.273Z,21.02
2022-09-26T01:30:02.126Z,21.02
2022-09-26T01:32:57.524Z,21.06
2022-09-26T01:35:45.203Z,21.08
2022-09-26T01:38:25.342Z,21.08
2022-09-26T01:41:09.242Z,21.10
2022-09-26T01:43:48.682Z,21.09
2022-09-26T01:46:28.707Z,21.11
2022-09-26T01:49:09.805Z,21.11
2022-09-26T01:51:48.742Z,21.09
2022-09-26T01:54:22.747Z,21.09
2022-09-26T01:56:53.324Z,21.07
2022-09-26T01:59:27.165Z,21.03
2022-09-26T02:02:02.486Z,21.05
2022-09-26T02:04:37.561Z,21.01
2022-09-26T02:07:12.283Z,21.06
2022-09-26T02:09:45.243Z,21.05
2022-09-26T02:12:21.009Z,21.06
2022-09-26T02:14:53.083Z,21.05
2022-09-26T02:17:28.626Z,21.04
2022-09-26T02:20:00.175Z,21.06
2022-09-26T02:22:32.844Z,21.05
2022-09-26T02:25:00.641Z,21.05
2022-09-26T02:27:28.981Z,21.01
2022-09-26T02:29:56.643Z,21.00
2022-09-26T02:32:30.046Z,20.99
2022-09-26T02:35:00.702Z,20.93
2022-09-26T02:37:27.883Z,20.91
2022-09-26T02:39:55.781Z,20.86
2022-09-26T02:42:33.421Z,20.88
2022-09-26T02:45:26.098Z,20.89
2022-09-26T02:48:17.582Z,20.86
2022-09-26T02:51:03.443Z,20.88
2022-09-26T02:53:50.223Z,20.88
2022-09-26T02:56:30.126Z,20.82
2022-09-26T02:59:09.330Z,20.84
2022-09-26T03:01:45.144Z,20.86
2022-09-26T03:04:23.714Z,20.88
2022-09-26T03:07:00.623Z,20.91
2022-09-26T03:09:30.682Z,20.89
2022-09-26T03:12:02.605Z,20.89
2022-09-26T03:14:34.303Z,20.89
2022-09-26T03:17:04.363Z,20.94
2022-09-26T03:19:38.685Z,20.96
2022-09-26T03:22:07.562Z,20.98
2022-09-26T03:24:36.524Z,20.92
2022-09-26T03:27:06.107Z,20.94
2022-09-26T03:29:33.209Z,20.96
2022-09-26T03:32:01.085Z,20.97
2022-09-26T03:34:28.183Z,20.94
2022-09-26T03:36:55.597Z,20.97
2022-09-26T03:39:24.123Z,20.93
2022-09-26T03:41:51.203Z,20.95
2022-09-26T03:44:18.371Z,21.02
2022-09-26T03:46:45.402Z,21.05
2022-09-26T03:49:12.670Z,21.04
2022-09-26T03:51:39.883Z,21.08
2022-09-26T03:54:06.941Z,21.07
2022-09-26T03:56:35.422Z,21.11
2022-09-26T03:59:02.444Z,21.07
2022-09-26T04:01:29.666Z,21.06
2022-09-26T04:03:57.342Z,21.07
2022-09-26T04:06:24.504Z,21.13
2022-09-26T04:08:53.012Z,21.07
2022-09-26T04:11:22.462Z,21.11
2022-09-26T04:13:53.617Z,21.15
2022-09-26T04:16:22.333Z,21.20
2022-09-26T04:18:50.023Z,21.15
2022-09-26T04:21:17.124Z,21.12
2022-09-26T04:23:44.904Z,21.12
2022-09-26T04:26:18.675Z,21.06
2022-09-26T04:28:51.421Z,21.08
2022-09-26T04:31:18.518Z,21.07
2022-09-26T04:33:45.563Z,21.08
2022-09-26T04:36:14.605Z,21.11
2022-09-26T04:38:41.722Z,21.11
2022-09-26T04:41:11.642Z,21.09
2022-09-26T04:43:39.221Z,21.08
2022-09-26T04:46:10.020Z,21.06
2022-09-26T04:48:37.723Z,21.05
2022-09-26T04:51:05.924Z,21.05
2022-09-26T04:53:33.387Z,21.11
2022-09-26T04:56:00.528Z,21.08
2022-09-26T04:58:27.584Z,21.02
2022-09-26T05:00:54.667Z,21.09
2022-09-26T05:03:23.206Z,21.07
2022-09-26T05:05:50.262Z,21.05
2022-09-26T05:08:17.574Z,21.03
2022-09-26T05:10:44.644Z,21.01
2022-09-26T05:13:11.822Z,21.00
2022-09-26T05:15:39.261Z,20.99
2022-09-26T05:18:07.921Z,21.01
2022-09-26T05:20:36.444Z,21.03
2022-09-26T05:23:06.445Z,21.03
2022-09-26T05:25:39.722Z,21.02
2022-09-26T05:28:06.823Z,21.04
2022-09-26T05:30:35.062Z,21.01
2022-09-26T05:33:02.210Z,20.98
2022-09-26T05:35:29.323Z,20.99
2022-09-26T05:38:01.903Z,20.93
2022-09-26T05:40:29.118Z,20.79
2022-09-26T05:43:04.946Z,20.73
2022-09-26T05:45:32.044Z,20.61
2022-09-26T05:47:59.143Z,20.53
2022-09-26T05:50:26.202Z,20.53
2022-09-26T05:52:57.662Z,20.63
2022-09-26T05:55:27.483Z,20.54
2022-09-26T05:57:57.663Z,20.55
2022-09-26T06:00:25.882Z,20.57
2022-09-26T06:02:56.444Z,20.45
2022-09-26T06:05:24.124Z,20.40
2022-09-26T06:07:51.926Z,20.33
2022-09-26T06:10:20.084Z,20.26
2022-09-26T06:12:51.099Z,20.19
2022-09-26T06:15:18.361Z,20.15
2022-09-26T06:17:45.801Z,20.13
2022-09-26T06:20:13.025Z,20.08
2022-09-26T06:22:41.244Z,20.52
2022-09-26T06:25:09.666Z,21.28
2022-09-26T06:27:37.107Z,21.71
2022-09-26T06:30:07.546Z,21.91
2022-09-26T06:32:36.719Z,21.55
2022-09-26T06:35:04.216Z,21.23
2022-09-26T06:37:31.246Z,21.02
2022-09-26T06:39:59.567Z,20.91
2022-09-26T06:42:27.779Z,20.78
2022-09-26T06:44:54.862Z,20.69
2022-09-26T06:47:23.488Z,20.63
2022-09-26T06:49:50.602Z,20.50
2022-09-26T06:52:17.761Z,20.46
2022-09-26T06:54:44.803Z,20.45
2022-09-26T06:57:15.032Z,20.42
2022-09-26T06:59:42.562Z,20.42
2022-09-26T07:02:09.869Z,20.45
2022-09-26T07:04:38.604Z,20.45
2022-09-26T07:07:05.643Z,20.44
2022-09-26T07:09:32.748Z,20.44
2022-09-26T07:12:16.060Z,20.46
2022-09-26T07:14:43.845Z,21.19
2022-09-26T07:17:15.258Z,21.77
2022-09-26T07:19:44.456Z,21.92
2022-09-26T07:22:14.692Z,22.11
2022-09-26T07:24:41.755Z,22.37
2022-09-26T07:27:08.835Z,22.58
2022-09-26T07:29:35.880Z,22.56
2022-09-26T07:32:03.118Z,22.61
2022-09-26T07:34:30.203Z,22.91
2022-09-26T07:36:59.324Z,23.05
2022-09-26T07:39:26.433Z,22.51
2022-09-26T07:41:53.508Z,22.09
2022-09-26T07:47:07.812Z,21.57
2022-09-26T07:49:35.012Z,21.42
2022-09-26T07:52:03.732Z,21.58
2022-09-26T07:54:30.769Z,21.96
2022-09-26T07:56:57.909Z,21.77
2022-09-26T07:59:25.031Z,21.54
2022-09-26T08:01:53.328Z,21.36
2022-09-26T08:04:20.588Z,21.23
2022-09-26T08:06:47.651Z,21.17
2022-09-26T08:09:16.277Z,21.10
2022-09-26T08:11:43.594Z,21.07
2022-09-26T08:14:10.709Z,21.03
2022-09-26T08:16:37.848Z,20.99
2022-09-26T08:19:05.309Z,20.93
2022-09-26T08:21:32.369Z,20.91
2022-09-26T08:23:59.581Z,20.89
2022-09-26T08:26:28.202Z,20.73
2022-09-26T08:28:55.209Z,20.84
2022-09-26T08:31:22.357Z,20.92
2022-09-26T08:33:49.528Z,20.97
2022-09-26T08:36:16.590Z,21.00
2022-09-26T08:38:43.726Z,20.97
2022-09-26T08:41:34.129Z,20.97
2022-09-26T08:44:14.613Z,20.97
2022-09-26T08:46:52.834Z,20.95
2022-09-26T08:49:52.068Z,20.92
2022-09-26T08:52:33.666Z,20.92
2022-09-26T08:55:07.932Z,20.93
2022-09-26T08:57:40.949Z,20.93
2022-09-26T09:00:17.963Z,21.00
2022-09-26T09:02:56.495Z,21.04
2022-09-26T09:05:28.541Z,21.02
2022-09-26T09:07:58.930Z,21.04
2022-09-26T09:10:42.187Z,21.07
2022-09-26T09:13:26.667Z,21.08
2022-09-26T09:16:15.980Z,21.04
2022-09-26T09:18:54.926Z,21.01
2022-09-26T09:21:39.333Z,21.10
2022-09-26T09:24:24.351Z,21.15
2022-09-26T09:30:17.166Z,21.26
2022-09-26T09:32:52.046Z,21.25
2022-09-26T09:35:37.449Z,21.33
2022-09-26T09:38:07.727Z,21.35
2022-09-26T09:40:40.469Z,21.37
2022-09-26T09:43:20.192Z,21.43
2022-09-26T09:45:51.794Z,21.46
2022-09-26T09:48:18.915Z,21.51
2022-09-26T09:51:02.956Z,21.51
2022-09-26T09:53:49.913Z,21.50
2022-09-26T09:56:30.650Z,21.65
2022-09-26T09:59:13.245Z,21.68
2022-09-26T10:01:47.025Z,21.78
2022-09-26T10:04:31.152Z,21.84
2022-09-26T10:06:58.276Z,21.90
2022-09-26T10:09:35.745Z,22.01
2022-09-26T10:12:14.055Z,22.07
2022-09-26T10:14:49.449Z,22.07
2022-09-26T10:17:20.783Z,22.09
2022-09-26T10:19:48.272Z,22.01
2022-09-26T10:22:20.229Z,22.02
2022-09-26T10:24:48.373Z,22.08
2022-09-26T10:27:19.092Z,22.03
2022-09-26T10:29:46.631Z,22.22
2022-09-26T10:32:14.114Z,22.30
2022-09-26T10:37:22.853Z,22.22
2022-09-26T10:39:54.693Z,22.20
2022-09-26T10:42:22.992Z,22.25
2022-09-26T10:44:50.155Z,22.32
2022-09-26T10:47:22.638Z,22.35
2022-09-26T10:49:58.444Z,22.39
2022-09-26T10:52:33.892Z,22.35
2022-09-26T10:55:07.414Z,22.36
2022-09-26T10:57:39.172Z,22.44
2022-09-26T11:00:07.955Z,22.38
2022-09-26T11:02:36.434Z,22.51
2022-09-26T11:05:07.036Z,22.62
2022-09-26T11:07:40.051Z,22.99
2022-09-26T11:10:12.572Z,23.39
2022-09-26T11:12:58.831Z,23.84
2022-09-26T11:15:26.433Z,24.15
2022-09-26T11:17:55.213Z,24.43
2022-09-26T11:20:42.172Z,24.64
2022-09-26T11:23:28.332Z,24.94
2022-09-26T11:26:09.707Z,25.16
2022-09-26T11:28:43.513Z,25.33
2022-09-26T11:31:21.940Z,25.21
2022-09-26T11:33:49.192Z,25.55
2022-09-26T11:36:39.375Z,25.48
2022-09-26T11:39:29.253Z,25.77
2022-09-26T11:42:15.558Z,25.63
2022-09-26T11:44:55.953Z,25.75
2022-09-26T11:47:58.473Z,25.91
2022-09-26T11:50:43.039Z,25.79
2022-09-26T11:53:38.936Z,25.54
2022-09-26T11:56:33.114Z,25.77
2022-09-26T11:59:18.554Z,25.88
2022-09-26T12:01:54.772Z,25.92
2022-09-26T12:05:02.998Z,25.89
2022-09-26T12:07:42.232Z,25.80
2022-09-26T12:10:24.853Z,25.54
2022-09-26T12:13:09.852Z,25.63
2022-09-26T12:15:45.707Z,25.43
2022-09-26T12:18:22.551Z,25.48
2022-09-26T12:21:05.592Z,25.55
2022-09-26T12:23:41.531Z,25.56
2022-09-26T12:26:21.755Z,25.63
2022-09-26T12:29:06.635Z,25.60
2022-09-26T12:31:53.986Z,25.63
2022-09-26T12:34:42.732Z,25.61
2022-09-26T12:37:29.672Z,25.64
2022-09-26T12:40:26.210Z,25.69
2022-09-26T12:43:33.730Z,25.69
2022-09-26T12:46:18.324Z,25.66
2022-09-26T12:49:12.445Z,25.67
2022-09-26T12:51:44.855Z,25.60
2022-09-26T12:54:34.150Z,25.64
2022-09-26T12:57:12.475Z,25.68
2022-09-26T13:00:07.581Z,25.64
2022-09-26T13:03:13.997Z,25.46
2022-09-26T13:06:09.036Z,25.55
2022-09-26T13:08:49.433Z,25.58
2022-09-26T13:11:32.420Z,25.58
2022-09-26T13:14:25.633Z,25.55
2022-09-26T13:17:08.416Z,25.56
2022-09-26T13:19:40.935Z,25.41
2022-09-26T13:22:23.914Z,25.13
2022-09-26T13:24:57.276Z,24.95
2022-09-26T13:27:30.475Z,24.80
2022-09-26T13:30:04.505Z,24.69
2022-09-26T13:32:45.552Z,24.57
2022-09-26T13:35:19.535Z,24.41
2022-09-26T13:38:03.092Z,24.22
2022-09-26T13:40:43.103Z,24.14
2022-09-26T13:43:26.872Z,24.14
2022-09-26T13:46:04.783Z,24.07
2022-09-26T13:48:47.891Z,24.01
2022-09-26T13:51:24.430Z,23.96
2022-09-26T13:54:03.132Z,23.99
2022-09-26T13:56:46.351Z,23.93
2022-09-26T13:59:49.052Z,23.86
2022-09-26T14:02:19.298Z,23.85
2022-09-26T14:04:48.873Z,23.82
2022-09-26T14:07:18.632Z,23.86
2022-09-26T14:09:56.452Z,23.89
2022-09-26T14:12:50.110Z,23.87
2022-09-26T14:15:21.093Z,23.89
2022-09-26T14:18:08.696Z,23.83
2022-09-26T14:21:09.351Z,23.83
2022-09-26T14:23:40.491Z,23.82
2022-09-26T14:26:13.854Z,23.79
2022-09-26T14:28:51.111Z,23.79
2022-09-26T14:31:36.796Z,23.83
2022-09-26T14:34:21.131Z,23.82
2022-09-26T14:36:52.074Z,23.80
2022-09-26T14:39:37.917Z,23.69
2022-09-26T14:42:24.290Z,23.58
2022-09-26T14:44:57.191Z,23.48
2022-09-26T14:47:27.656Z,23.42
2022-09-26T14:50:01.837Z,23.40
2022-09-26T14:52:32.311Z,23.33
2022-09-26T14:55:04.352Z,23.12
2022-09-26T14:57:35.134Z,23.04
2022-09-26T15:00:23.091Z,22.99
2022-09-26T15:03:00.812Z,22.95
2022-09-26T15:05:28.828Z,22.88
2022-09-26T15:07:57.671Z,22.87
2022-09-26T15:10:37.030Z,22.76
2022-09-26T15:13:19.811Z,22.75
2022-09-26T15:15:58.757Z,22.73
2022-09-26T15:18:38.610Z,22.80
2022-09-26T15:21:19.119Z,22.81
2022-09-26T15:23:50.111Z,22.79
2022-09-26T15:26:23.035Z,22.80
2022-09-26T15:28:52.992Z,22.77
2022-09-26T15:31:28.137Z,22.74
2022-09-26T15:34:00.792Z,22.65
2022-09-26T15:36:30.171Z,22.60
2022-09-26T15:38:59.870Z,22.59
2022-09-26T15:41:27.270Z,22.57
2022-09-26T15:44:01.482Z,22.46
2022-09-26T15:46:28.654Z,22.47
2022-09-26T15:48:55.811Z,22.41
2022-09-26T15:51:29.471Z,22.34
2022-09-26T15:54:03.492Z,22.82
2022-09-26T15:56:36.230Z,23.04
2022-09-26T15:59:11.512Z,23.08
2022-09-26T16:01:43.819Z,23.29
2022-09-26T16:04:20.390Z,23.46
2022-09-26T16:06:58.299Z,23.62
2022-09-26T16:09:32.215Z,23.68
2022-09-26T16:12:04.168Z,23.73
2022-09-26T16:14:38.131Z,23.79
2022-09-26T16:17:18.210Z,23.79
2022-09-26T16:19:48.363Z,23.77
2022-09-26T16:22:33.649Z,23.82
2022-09-26T16:25:21.628Z,23.78
2022-09-26T16:27:51.407Z,23.75
2022-09-26T16:30:37.947Z,23.80
2022-09-26T16:33:28.849Z,23.85
2022-09-26T16:36:01.728Z,23.92
2022-09-26T16:38:32.698Z,23.44
2022-09-26T16:41:06.208Z,23.19
2022-09-26T16:43:33.406Z,23.03
2022-09-26T16:46:07.210Z,22.87
2022-09-26T16:48:40.791Z,22.64
2022-09-26T16:51:19.608Z,22.53
2022-09-26T16:53:49.553Z,22.44
2022-09-26T16:56:21.409Z,22.23
2022-09-26T16:58:52.547Z,22.20
2022-09-26T17:01:20.673Z,22.15
2022-09-26T17:03:47.807Z,22.14
2022-09-26T17:06:14.868Z,22.10
2022-09-26T17:08:41.948Z,22.05
2022-09-26T17:11:15.807Z,21.99
2022-09-26T17:13:44.387Z,21.95
2022-09-26T17:16:13.030Z,21.98
2022-09-26T17:18:40.449Z,21.99
2022-09-26T17:21:07.507Z,21.92
2022-09-26T17:23:42.104Z,21.92
2022-09-26T17:26:18.767Z,21.94
2022-09-26T17:28:48.687Z,21.70
2022-09-26T17:31:18.287Z,22.26
2022-09-26T17:33:47.400Z,22.48
2022-09-26T17:36:21.089Z,22.73
2022-09-26T17:38:48.188Z,22.92
2022-09-26T17:41:15.929Z,22.95
2022-09-26T17:43:43.129Z,22.71
2022-09-26T17:46:16.100Z,22.51
2022-09-26T17:48:44.878Z,22.41
2022-09-26T17:51:12.160Z,22.28
2022-09-26T17:53:46.132Z,22.24
2022-09-26T17:56:16.008Z,22.18
2022-09-26T17:58:44.506Z,22.09
2022-09-26T18:01:21.944Z,22.04
2022-09-26T18:03:55.088Z,21.88
2022-09-26T18:06:26.690Z,21.95
2022-09-26T18:08:54.051Z,21.91
2022-09-26T18:11:21.409Z,21.89
2022-09-26T18:13:52.688Z,21.85
2022-09-26T18:16:21.257Z,21.87
2022-09-26T18:18:48.730Z,21.80
2022-09-26T18:21:17.969Z,21.77
2022-09-26T18:23:51.148Z,21.82
2022-09-26T18:26:27.369Z,21.74
2022-09-26T18:28:55.448Z,21.74
2022-09-26T18:31:28.860Z,21.70
2022-09-26T18:33:56.189Z,21.63
2022-09-26T18:36:24.007Z,21.64
2022-09-26T18:38:51.089Z,21.59
2022-09-26T18:41:22.127Z,21.55
2022-09-26T18:43:50.348Z,21.54
2022-09-26T18:46:17.783Z,21.50
2022-09-26T18:48:47.508Z,21.40
2022-09-26T18:51:14.649Z,21.31
2022-09-26T18:53:44.709Z,21.18
2022-09-26T18:56:12.507Z,21.19
2022-09-26T18:58:39.587Z,21.08
2022-09-26T19:01:11.920Z,21.15
2022-09-26T19:03:42.329Z,21.16
2022-09-26T19:06:16.110Z,21.05
2022-09-26T19:08:46.329Z,21.07
2022-09-26T19:11:17.188Z,20.98
2022-09-26T19:13:46.269Z,20.95
2022-09-26T19:16:14.117Z,20.98
2022-09-26T19:18:41.846Z,20.76
2022-09-26T19:21:20.800Z,20.85
2022-09-26T19:23:50.413Z,20.68
2022-09-26T19:26:26.931Z,20.86
2022-09-26T19:28:56.689Z,20.85
2022-09-26T19:31:24.390Z,20.85
2022-09-26T19:33:52.446Z,20.85
2022-09-26T19:36:21.447Z,20.76
2022-09-26T19:38:48.531Z,20.70
2022-09-26T19:41:15.669Z,20.71
2022-09-26T19:43:42.747Z,20.72
2022-09-26T19:46:16.464Z,20.62
2022-09-26T19:48:43.949Z,20.71
2022-09-26T19:51:14.669Z,20.73
2022-09-26T19:53:43.487Z,20.68
2022-09-26T19:56:10.673Z,20.66
2022-09-26T19:58:37.814Z,20.67
2022-09-26T20:01:15.880Z,20.60
2022-09-26T20:03:43.370Z,20.54
2022-09-26T20:06:14.529Z,20.51
2022-09-26T20:08:43.288Z,20.45
2022-09-26T20:11:10.569Z,20.42
2022-09-26T20:13:37.677Z,20.37
2022-09-26T20:16:09.449Z,20.34
2022-09-26T20:18:36.569Z,20.29
2022-09-26T20:21:03.968Z,20.19
2022-09-26T20:23:31.067Z,20.10
2022-09-26T20:25:59.567Z,20.01
2022-09-26T20:28:26.688Z,20.03
2022-09-26T20:30:53.841Z,20.12
2022-09-26T20:33:23.407Z,20.12
2022-09-26T20:36:00.164Z,20.16
2022-09-26T20:38:35.810Z,20.16
2022-09-26T20:41:12.880Z,20.13
2022-09-26T20:43:46.876Z,20.11
2022-09-26T20:46:15.056Z,20.11
2022-09-26T20:48:47.408Z,20.12
2022-09-26T20:51:20.049Z,20.12
2022-09-26T20:53:47.176Z,20.15
2022-09-26T20:56:15.753Z,20.13
2022-09-26T20:58:43.327Z,20.10
2022-09-26T21:01:13.180Z,20.10
2022-09-26T21:03:44.383Z,20.03
2022-09-26T21:06:17.328Z,20.03
2022-09-26T21:08:44.466Z,20.03
2022-09-26T21:11:13.548Z,19.87
2022-09-26T21:13:42.129Z,19.93
2022-09-26T21:16:12.628Z,19.97
2022-09-26T21:18:40.811Z,20.02
2022-09-26T21:21:17.907Z,19.98
2022-09-26T21:23:45.028Z,19.98
2022-09-26T21:26:18.327Z,19.93
2022-09-26T21:28:48.948Z,19.99
2022-09-26T21:31:22.318Z,19.92
2022-09-26T21:33:50.348Z,19.92
2022-09-26T21:36:19.510Z,20.13
2022-09-26T21:38:46.916Z,20.04
2022-09-26T21:41:14.271Z,19.99
2022-09-26T21:43:47.634Z,19.95
2022-09-26T21:46:16.257Z,19.90
2022-09-26T21:48:43.809Z,19.89
2022-09-26T21:51:12.068Z,19.89
2022-09-26T21:53:45.187Z,19.89
2022-09-26T21:56:18.728Z,19.87
2022-09-26T21:58:47.048Z,19.87
2022-09-26T22:01:15.683Z,19.87
2022-09-26T22:03:42.874Z,19.86
2022-09-26T22:06:10.037Z,19.87
2022-09-26T22:08:38.208Z,19.85
2022-09-26T22:11:06.408Z,19.83
2022-09-26T22:13:36.006Z,19.82
2022-09-26T22:16:07.008Z,19.80
2022-09-26T22:18:36.489Z,19.73
2022-09-26T22:21:03.708Z,19.75
2022-09-26T22:23:31.346Z,19.75
2022-09-26T22:25:58.587Z,19.73
2022-09-26T22:28:26.110Z,19.71
2022-09-26T22:30:53.252Z,19.66
2022-09-26T22:33:20.937Z,19.64
2022-09-26T22:35:50.187Z,19.59
2022-09-26T22:38:18.463Z,19.57
2022-09-26T22:40:46.259Z,19.55
2022-09-26T22:43:13.738Z,19.55
2022-09-26T22:45:41.322Z,19.56
2022-09-26T22:48:08.393Z,19.50
2022-09-26T22:50:35.487Z,19.48
2022-09-26T22:53:03.972Z,19.49
2022-09-26T22:55:30.986Z,19.50
2022-09-26T22:57:58.066Z,19.45
2022-09-26T23:00:25.068Z,19.43
2022-09-26T23:02:52.272Z,19.44
2022-09-26T23:05:19.546Z,19.40
2022-09-26T23:07:46.646Z,19.36
2022-09-26T23:10:15.281Z,19.37
2022-09-26T23:12:42.407Z,19.37
2022-09-26T23:15:10.347Z,19.35
2022-09-26T23:17:37.407Z,19.32
2022-09-26T23:20:05.498Z,19.25
2022-09-26T23:22:32.609Z,19.16
2022-09-26T23:24:59.707Z,19.19
2022-09-26T23:27:28.186Z,19.14
2022-09-26T23:29:55.228Z,19.18
2022-09-26T23:32:22.389Z,19.06
2022-09-26T23:34:49.446Z,19.10
2022-09-26T23:37:16.522Z,19.06
2022-09-26T23:39:43.526Z,19.08
2022-09-26T23:42:10.646Z,19.09
2022-09-26T23:44:39.207Z,19.11
2022-09-26T23:47:06.185Z,19.06
2022-09-26T23:49:33.247Z,19.13
2022-09-26T23:52:00.434Z,19.13
2022-09-26T23:54:27.470Z,19.16
2022-09-26T23:56:54.920Z,19.07
2022-09-26T23:59:22.069Z,19.09
